Time;durP1;ratioP1;P1;durP2;ratioP2;P2;SDS_P1;SDS_P2;PMS_P1;PMS_P2;Temp;Humidity;BMP_temperature;BMP_pressure;BME280_temperature;BME280_humidity;BME280_pressure;Samples;Min_cycle;Max_cycle;Signal;HPM_P1;HPM_P2
2024/04/23 00:01:53;;;;;;;7.10;5.38;;;4.80;99.90;;;;;;5378728;26;20234;-81
2024/04/23 00:04:21;;;;;;;8.90;5.72;;;4.80;99.90;;;;;;5380431;26;20339;-79
2024/04/23 00:06:53;;;;;;;8.90;5.75;;;4.70;99.90;;;;;;5378268;26;20265;-82
2024/04/23 00:09:21;;;;;;;8.00;5.40;;;4.60;99.90;;;;;;5378409;26;20286;-80
2024/04/23 00:11:50;;;;;;;7.43;5.55;;;4.60;99.90;;;;;;5378264;26;20223;-80
2024/04/23 00:14:19;;;;;;;7.00;5.03;;;4.60;99.90;;;;;;5377083;26;20238;-79
2024/04/23 00:16:56;;;;;;;8.27;5.63;;;4.50;99.90;;;;;;5378541;26;20223;-81
2024/04/23 00:19:24;;;;;;;10.07;6.63;;;4.50;99.90;;;;;;5377784;26;20264;-82
2024/04/23 00:21:53;;;;;;;8.00;5.30;;;4.50;99.90;;;;;;5379278;26;20283;-81
2024/04/23 00:24:19;;;;;;;7.88;6.15;;;4.50;99.90;;;;;;5350419;26;20286;-80
2024/04/23 00:26:56;;;;;;;8.00;5.50;;;4.50;99.90;;;;;;5379580;26;20273;-80
2024/04/23 00:29:22;;;;;;;10.60;6.28;;;4.50;99.90;;;;;;5378685;26;20273;-81
2024/04/23 00:31:51;;;;;;;8.07;5.40;;;4.50;99.90;;;;;;5379871;26;20725;-80
2024/04/23 00:34:17;;;;;;;7.88;6.28;;;4.50;99.90;;;;;;5397150;26;20859;-82
2024/04/23 00:36:53;;;;;;;7.90;6.53;;;4.50;99.90;;;;;;5425797;26;20225;-81
2024/04/23 00:39:19;;;;;;;14.10;6.85;;;4.40;99.90;;;;;;5404641;26;20292;-80
2024/04/23 00:41:47;;;;;;;9.52;6.55;;;4.40;99.90;;;;;;5387407;26;20215;-80
2024/04/23 00:44:19;;;;;;;7.72;5.80;;;4.30;99.90;;;;;;5452769;26;20236;-81
2024/04/23 00:46:46;;;;;;;10.13;6.55;;;4.30;99.90;;;;;;5419536;26;20230;-79
2024/04/23 00:49:16;;;;;;;8.48;5.82;;;4.30;99.90;;;;;;5383497;26;20302;-80
2024/04/23 00:51:47;;;;;;;6.80;5.35;;;4.20;99.90;;;;;;5379130;26;20253;-79
2024/04/23 00:54:17;;;;;;;13.38;7.57;;;4.10;99.90;;;;;;5407562;26;20238;-79
2024/04/23 00:56:43;;;;;;;8.73;5.93;;;4.10;99.90;;;;;;5380661;26;20222;-79
2024/04/23 00:59:14;;;;;;;7.90;5.63;;;4.10;99.90;;;;;;5377501;26;20285;-81
2024/04/23 01:01:44;;;;;;;8.07;5.72;;;4.00;99.90;;;;;;5377820;26;20218;-81
2024/04/23 01:04:12;;;;;;;9.20;6.25;;;4.00;99.90;;;;;;5378160;26;20218;-80
2024/04/23 01:06:38;;;;;;;7.03;5.85;;;4.10;99.90;;;;;;5377597;26;20222;-80
2024/04/23 01:09:07;;;;;;;9.07;5.95;;;4.10;99.90;;;;;;5377501;26;20273;-80
2024/04/23 01:11:34;;;;;;;8.52;5.78;;;4.10;99.90;;;;;;5377536;26;20567;-81
2024/04/23 01:14:03;;;;;;;11.88;6.38;;;4.00;99.90;;;;;;5381355;26;20230;-80
2024/04/23 01:16:33;;;;;;;8.85;6.05;;;4.00;99.90;;;;;;5383067;26;20303;-80
2024/04/23 01:19:06;;;;;;;10.30;6.40;;;4.00;99.90;;;;;;5378536;26;20226;-80
2024/04/23 01:21:41;;;;;;;9.32;6.57;;;4.00;99.90;;;;;;5382918;26;20261;-80
2024/04/23 01:24:18;;;;;;;8.00;6.15;;;4.00;99.90;;;;;;5377434;26;20641;-80
2024/04/23 01:26:47;;;;;;;8.20;6.72;;;4.10;99.90;;;;;;5378897;26;20226;-80
2024/04/23 01:29:16;;;;;;;10.20;6.72;;;4.20;99.90;;;;;;5377455;26;20272;-80
2024/04/23 01:31:42;;;;;;;8.00;5.43;;;4.20;99.90;;;;;;5378313;26;20260;-78
2024/04/23 01:34:11;;;;;;;6.55;5.95;;;4.00;99.90;;;;;;5381267;26;20222;-78
2024/04/23 01:36:37;;;;;;;8.32;6.53;;;3.90;99.90;;;;;;5383675;26;20219;-80
2024/04/23 01:39:06;;;;;;;8.83;7.93;;;4.00;99.90;;;;;;5384750;26;20230;-80
2024/04/23 01:41:32;;;;;;;10.77;7.15;;;4.00;99.90;;;;;;5382249;26;20456;-79
2024/04/23 01:44:04;;;;;;;7.85;6.85;;;4.10;99.90;;;;;;5389296;26;20268;-80
2024/04/23 01:46:31;;;;;;;9.65;7.05;;;4.10;99.90;;;;;;5393571;26;20265;-80
2024/04/23 01:49:00;;;;;;;9.07;6.57;;;4.10;99.90;;;;;;5392571;26;20234;-79
2024/04/23 01:51:26;;;;;;;6.97;5.88;;;4.10;99.90;;;;;;5391402;26;20248;-80
2024/04/23 01:53:55;;;;;;;6.65;4.95;;;4.20;99.90;;;;;;5390510;26;20249;-80
2024/04/23 01:56:21;;;;;;;7.72;6.20;;;4.20;99.90;;;;;;5390114;26;20226;-80
2024/04/23 01:58:49;;;;;;;6.20;5.60;;;4.20;99.90;;;;;;5392020;26;20324;-79
2024/04/23 02:01:21;;;;;;;8.43;6.55;;;4.30;99.90;;;;;;5392714;26;20508;-80
2024/04/23 02:03:50;;;;;;;9.30;6.57;;;4.30;99.90;;;;;;5357852;26;20220;-79
2024/04/23 02:06:18;;;;;;;8.80;5.75;;;4.30;99.90;;;;;;5356575;26;20266;-79
2024/04/23 02:08:47;;;;;;;7.72;5.72;;;4.30;99.90;;;;;;5351635;26;20280;-79
2024/04/23 02:11:13;;;;;;;8.13;6.40;;;4.30;99.90;;;;;;5351044;26;20231;-79
2024/04/23 02:13:42;;;;;;;7.55;6.07;;;4.30;99.90;;;;;;5342574;26;20270;-80
2024/04/23 02:16:08;;;;;;;8.38;6.30;;;4.30;99.90;;;;;;5342161;26;20254;-80
2024/04/23 02:18:39;;;;;;;10.02;5.90;;;4.30;99.90;;;;;;5340359;26;20729;-80
2024/04/23 02:21:05;;;;;;;9.00;6.28;;;4.40;99.90;;;;;;5351519;26;20234;-79
2024/04/23 02:23:33;;;;;;;8.90;6.53;;;4.40;99.90;;;;;;5374984;26;20249;-79
2024/04/23 02:25:59;;;;;;;9.48;6.93;;;4.40;99.90;;;;;;5388250;26;20441;-81
2024/04/23 02:28:28;;;;;;;7.90;6.57;;;4.40;99.90;;;;;;5387065;26;20290;-79
2024/04/23 02:30:54;;;;;;;7.60;5.38;;;4.40;99.90;;;;;;5383286;26;20509;-81
2024/04/23 02:33:23;;;;;;;7.50;5.20;;;4.40;99.90;;;;;;5376918;26;20238;-80
2024/04/23 02:35:52;;;;;;;9.77;6.97;;;4.40;99.90;;;;;;5376384;26;20501;-80
2024/04/23 02:38:20;;;;;;;7.80;5.47;;;4.30;99.90;;;;;;5393961;26;20241;-81
2024/04/23 02:40:46;;;;;;;10.18;5.65;;;4.30;99.90;;;;;;5422399;26;20264;-79
2024/04/23 02:43:15;;;;;;;7.15;6.15;;;4.30;99.90;;;;;;5423121;26;20225;-80
2024/04/23 02:45:40;;;;;;;9.05;6.38;;;4.40;99.90;;;;;;5422833;26;20283;-79
2024/04/23 02:48:10;;;;;;;10.33;6.10;;;4.40;99.90;;;;;;5426847;26;20229;-79
2024/04/23 02:50:35;;;;;;;7.45;5.93;;;4.40;99.90;;;;;;5422024;26;20518;-80
2024/04/23 02:53:07;;;;;;;8.40;6.87;;;4.40;99.90;;;;;;5422290;26;20221;-80
2024/04/23 02:55:33;;;;;;;11.30;6.05;;;4.30;99.90;;;;;;5369611;26;20532;-80
2024/04/23 02:58:01;;;;;;;8.33;5.37;;;4.20;99.90;;;;;;5379731;26;20239;-79
2024/04/23 03:00:27;;;;;;;10.27;7.35;;;4.30;99.90;;;;;;5380183;26;20464;-79
2024/04/23 03:02:56;;;;;;;8.77;6.87;;;4.20;99.90;;;;;;5382814;26;20264;-79
2024/04/23 03:05:22;;;;;;;8.18;6.47;;;4.20;99.90;;;;;;5382195;26;20513;-80
2024/04/23 03:07:50;;;;;;;9.48;5.47;;;4.20;99.90;;;;;;5412559;26;20293;-79
2024/04/23 03:10:19;;;;;;;12.63;6.88;;;4.20;99.90;;;;;;5390344;26;20277;-81
2024/04/23 03:12:47;;;;;;;10.27;6.10;;;4.20;99.90;;;;;;5410967;26;20234;-80
2024/04/23 03:15:13;;;;;;;9.25;6.20;;;4.30;99.90;;;;;;5416017;26;20284;-79
2024/04/23 03:17:42;;;;;;;7.80;5.87;;;4.20;99.90;;;;;;5381726;26;20235;-78
2024/04/23 03:20:08;;;;;;;7.63;6.13;;;4.10;99.90;;;;;;5382670;26;20476;-80
2024/04/23 03:22:37;;;;;;;7.20;6.00;;;4.10;99.90;;;;;;5382330;26;20597;-79
2024/04/23 03:25:03;;;;;;;7.97;5.65;;;4.10;99.90;;;;;;5383597;26;20234;-79
2024/04/23 03:27:35;;;;;;;8.50;5.88;;;4.20;99.90;;;;;;5382378;26;20294;-79
2024/04/23 03:30:01;;;;;;;9.20;6.38;;;4.20;99.90;;;;;;5377183;26;20242;-80
2024/04/23 03:32:30;;;;;;;7.47;6.30;;;4.30;99.90;;;;;;5414060;26;20239;-78
2024/04/23 03:34:56;;;;;;;7.57;5.95;;;4.30;99.90;;;;;;5407913;26;20502;-79
2024/04/23 03:37:24;;;;;;;9.23;7.10;;;4.30;99.90;;;;;;5413982;26;20588;-79
2024/04/23 03:39:50;;;;;;;9.40;6.22;;;4.20;99.90;;;;;;5367628;26;20468;-79
2024/04/23 03:42:19;;;;;;;14.10;7.37;;;4.10;99.90;;;;;;5381910;26;20234;-81
2024/04/23 03:44:50;;;;;;;12.10;8.45;;;4.10;99.90;;;;;;5396313;26;20521;-79
2024/04/23 03:47:18;;;;;;;9.40;6.40;;;3.90;99.90;;;;;;5382068;26;20235;-79
2024/04/23 03:49:44;;;;;;;9.18;7.50;;;4.00;99.90;;;;;;5381185;26;20285;-78
2024/04/23 03:52:16;;;;;;;10.02;6.45;;;4.00;99.90;;;;;;5397414;26;20242;-79
2024/04/23 03:54:43;;;;;;;13.20;9.02;;;3.80;99.90;;;;;;5382074;26;20236;-80
2024/04/23 03:57:12;;;;;;;10.68;7.43;;;3.80;99.90;;;;;;5394477;26;20306;-79
2024/04/23 03:59:38;;;;;;;14.23;8.70;;;3.80;99.90;;;;;;5378108;26;20239;-79
2024/04/23 04:07:38;;;;;;;9.30;7.10;;;3.60;99.90;;;;;;5426785;26;20281;-79
2024/04/23 04:10:07;;;;;;;14.32;8.15;;;3.50;99.90;;;;;;5405223;26;20235;-79
2024/04/23 04:12:35;;;;;;;11.68;8.73;;;3.50;99.90;;;;;;5390212;26;20320;-79
2024/04/23 04:15:04;;;;;;;13.38;10.25;;;3.40;99.90;;;;;;5382638;26;20273;-80
2024/04/23 04:17:33;;;;;;;12.50;8.88;;;3.50;99.90;;;;;;5395240;26;20260;-78
2024/04/23 04:20:01;;;;;;;12.60;9.50;;;3.50;99.90;;;;;;5395025;26;20230;-80
2024/04/23 04:22:27;;;;;;;12.05;8.98;;;3.60;99.90;;;;;;5394963;26;20254;-78
2024/04/23 04:24:56;;;;;;;12.02;8.63;;;3.60;99.90;;;;;;5395827;26;20219;-78
2024/04/23 04:27:22;;;;;;;14.13;8.82;;;3.60;99.90;;;;;;5395737;26;20215;-79
2024/04/23 04:29:50;;;;;;;15.17;8.67;;;3.70;99.90;;;;;;5394846;26;20281;-79
2024/04/23 04:32:16;;;;;;;14.07;8.25;;;3.70;99.90;;;;;;5385598;26;20464;-78
2024/04/23 04:34:47;;;;;;;14.13;8.55;;;3.80;99.90;;;;;;5380703;26;20294;-80
2024/04/23 04:37:13;;;;;;;13.30;9.07;;;3.90;99.90;;;;;;5381999;26;20273;-80
2024/04/23 04:39:42;;;;;;;13.75;10.15;;;3.90;99.90;;;;;;5423233;26;20285;-78
2024/04/23 04:42:08;;;;;;;12.25;9.65;;;4.00;99.90;;;;;;5427747;26;20230;-79
2024/04/23 04:44:38;;;;;;;13.38;8.73;;;4.00;99.90;;;;;;5393732;26;20311;-81
2024/04/23 04:47:08;;;;;;;15.30;9.73;;;4.00;99.90;;;;;;5391504;26;20254;-82
2024/04/23 04:49:36;;;;;;;13.15;8.55;;;4.10;99.90;;;;;;5390533;26;20234;-80
2024/04/23 04:52:05;;;;;;;16.08;9.85;;;4.20;99.90;;;;;;5393628;26;20218;-79
2024/04/23 04:54:34;;;;;;;10.63;7.55;;;4.20;99.90;;;;;;5398102;26;20269;-80
2024/04/23 04:57:02;;;;;;;17.88;9.43;;;4.20;99.90;;;;;;5421527;26;20261;-80
2024/04/23 04:59:28;;;;;;;16.25;11.13;;;4.20;99.90;;;;;;5377912;26;20345;-80
2024/04/23 05:01:57;;;;;;;13.65;9.32;;;4.20;99.90;;;;;;5372466;26;20242;-80
2024/04/23 05:04:23;;;;;;;13.50;9.25;;;4.40;99.90;;;;;;5393485;26;20265;-81
2024/04/23 05:06:52;;;;;;;13.85;10.65;;;4.40;99.90;;;;;;5394532;26;20227;-79
2024/04/23 05:09:20;;;;;;;13.65;10.23;;;4.50;99.90;;;;;;5392401;26;20234;-80
2024/04/23 05:11:49;;;;;;;14.18;8.93;;;4.60;99.90;;;;;;5385605;26;20278;-82
2024/04/23 05:14:16;;;;;;;13.07;8.75;;;5.10;99.90;;;;;;5379329;26;20232;-81
2024/04/23 05:16:46;;;;;;;14.02;8.40;;;6.00;99.90;;;;;;5377675;26;20225;-81
2024/04/23 05:19:12;;;;;;;13.30;9.50;;;6.80;99.90;;;;;;5377147;26;20257;-82
2024/04/23 05:21:40;;;;;;;10.95;7.75;;;7.80;99.90;;;;;;5376426;26;20222;-81
2024/04/23 05:24:07;;;;;;;10.93;7.38;;;8.80;99.90;;;;;;5375918;26;20231;-81
2024/04/23 05:26:38;;;;;;;13.70;7.72;;;9.80;99.90;;;;;;5412000;26;20236;-81
2024/04/23 05:29:07;;;;;;;8.90;7.70;;;10.70;99.90;;;;;;5376176;26;20275;-82
2024/04/23 05:34:19;;;;;;;13.43;7.90;;;11.10;97.70;;;;;;5381320;26;20306;-82
2024/04/23 05:36:48;;;;;;;9.93;8.40;;;11.20;96.60;;;;;;5377747;26;20710;-80
2024/04/23 05:39:16;;;;;;;10.00;8.45;;;10.40;96.20;;;;;;5389496;26;20227;-81
2024/04/23 05:41:48;;;;;;;15.10;9.02;;;9.70;97.50;;;;;;5420961;26;20230;-80
2024/04/23 05:44:17;;;;;;;12.32;8.80;;;9.20;99.40;;;;;;5376279;26;20230;-81
2024/04/23 05:46:46;;;;;;;13.02;8.10;;;8.90;99.90;;;;;;5385534;26;20260;-80
2024/04/23 05:49:53;;;;;;;14.60;8.27;;;8.90;99.90;;;;;;5395634;26;20238;-80
2024/04/23 05:52:59;;;;;;;15.63;8.30;;;9.70;99.90;;;;;;5376969;26;20222;-80
2024/04/23 05:55:32;;;;;;;10.60;6.97;;;10.60;98.70;;;;;;5362712;26;20245;-81
2024/04/23 05:58:04;;;;;;;7.60;6.80;;;11.80;96.50;;;;;;5366350;26;20265;-82
2024/04/23 06:00:30;;;;;;;11.05;7.20;;;12.70;94.50;;;;;;5382579;26;20237;-79
2024/04/23 06:02:59;;;;;;;7.97;7.18;;;13.60;92.50;;;;;;5382718;26;20238;-80
2024/04/23 06:05:25;;;;;;;6.63;5.95;;;13.70;91.00;;;;;;5383783;26;20281;-81
2024/04/23 06:07:54;;;;;;;8.15;7.35;;;14.20;90.90;;;;;;5405181;26;20316;-81
2024/04/23 06:10:21;;;;;;;13.95;7.07;;;14.40;88.50;;;;;;5391829;26;20236;-81
2024/04/23 06:12:50;;;;;;;14.73;7.50;;;15.50;88.00;;;;;;5396176;26;20273;-81
2024/04/23 06:15:28;;;;;;;8.23;6.70;;;16.50;84.60;;;;;;5389314;26;20562;-81
2024/04/23 06:17:57;;;;;;;10.13;7.47;;;17.20;81.40;;;;;;5376417;26;21097;-81
2024/04/23 06:20:23;;;;;;;10.93;7.67;;;17.90;79.50;;;;;;5376501;26;20528;-81
2024/04/23 06:22:52;;;;;;;10.17;7.33;;;18.50;76.90;;;;;;5381764;26;20463;-81
2024/04/23 06:25:19;;;;;;;7.60;6.80;;;19.00;74.70;;;;;;5397693;26;20524;-82
2024/04/23 06:27:48;;;;;;;10.87;7.17;;;19.00;71.80;;;;;;5381129;26;20477;-81
2024/04/23 06:30:17;;;;;;;8.10;7.30;;;19.10;71.00;;;;;;5376256;26;20464;-81
2024/04/23 06:32:46;;;;;;;7.53;6.13;;;19.50;70.10;;;;;;5376044;26;20886;-82
2024/04/23 06:35:15;;;;;;;7.40;5.60;;;19.70;68.30;;;;;;5411747;26;20465;-81
2024/04/23 06:37:42;;;;;;;7.30;6.70;;;19.30;67.60;;;;;;5378018;26;20524;-82
2024/04/23 06:40:11;;;;;;;8.20;6.53;;;19.30;67.00;;;;;;5380426;26;20568;-81
2024/04/23 06:42:37;;;;;;;6.77;6.03;;;19.10;66.60;;;;;;5385546;26;20488;-82
2024/04/23 06:45:09;;;;;;;7.40;6.30;;;19.80;67.80;;;;;;5404731;26;20487;-82
2024/04/23 06:47:35;;;;;;;7.00;6.20;;;20.20;66.30;;;;;;5379304;26;20539;-80
2024/04/23 06:50:07;;;;;;;7.70;5.83;;;19.30;65.30;;;;;;5394796;26;20542;-81
2024/04/23 06:52:36;;;;;;;8.10;7.30;;;18.60;66.10;;;;;;5395370;26;20508;-81
2024/04/23 06:55:05;;;;;;;10.40;8.50;;;18.30;66.20;;;;;;5395218;26;20468;-80
2024/04/23 06:57:31;;;;;;;5.60;5.00;;;17.50;67.20;;;;;;5425941;26;20454;-80
2024/04/23 06:59:59;;;;;;;8.60;5.93;;;17.30;67.30;;;;;;5391770;26;20526;-81
2024/04/23 07:02:25;;;;;;;10.80;6.10;;;17.20;67.70;;;;;;5392071;26;20461;-80
2024/04/23 07:04:54;;;;;;;7.37;6.37;;;17.60;67.30;;;;;;5399143;26;20526;-81
2024/04/23 07:07:23;;;;;;;6.40;5.70;;;18.00;66.30;;;;;;5398701;26;20511;-81
2024/04/23 07:09:52;;;;;;;7.37;6.67;;;17.80;65.30;;;;;;5383529;26;20519;-83
2024/04/23 07:12:18;;;;;;;10.77;7.17;;;18.20;65.50;;;;;;5383756;26;20977;-81
2024/04/23 07:14:47;;;;;;;7.20;6.50;;;18.80;64.00;;;;;;5386196;26;20472;-81
2024/04/23 07:17:13;;;;;;;10.00;6.20;;;18.60;60.70;;;;;;5386333;26;20521;-81
2024/04/23 07:19:42;;;;;;;8.47;6.53;;;19.00;62.60;;;;;;5386560;26;20564;-81
2024/04/23 07:22:08;;;;;;;7.90;6.30;;;19.40;61.40;;;;;;5390071;26;20527;-81
2024/04/23 07:24:40;;;;;;;6.37;5.83;;;20.10;60.50;;;;;;5388720;26;20464;-83
2024/04/23 07:27:06;;;;;;;6.73;6.07;;;20.50;59.60;;;;;;5390604;26;20460;-81
2024/04/23 07:29:34;;;;;;;6.57;6.03;;;20.50;58.50;;;;;;5392210;26;20476;-80
2024/04/23 07:32:00;;;;;;;6.23;5.67;;;20.90;58.60;;;;;;5391164;26;20464;-81
2024/04/23 07:34:29;;;;;;;6.47;5.97;;;20.50;57.50;;;;;;5458710;26;20555;-81
2024/04/23 07:36:55;;;;;;;7.37;6.67;;;20.80;58.00;;;;;;5472051;26;20450;-81
2024/04/23 07:39:24;;;;;;;7.27;6.57;;;20.10;58.30;;;;;;5472809;26;20457;-81
2024/04/23 07:41:53;;;;;;;8.17;5.80;;;20.00;57.50;;;;;;5474543;26;20494;-81
2024/04/23 07:44:22;;;;;;;6.43;5.87;;;20.30;58.00;;;;;;5474850;26;20462;-82
2024/04/23 07:46:48;;;;;;;9.10;5.70;;;20.40;58.00;;;;;;5473980;26;20453;-80
2024/04/23 07:49:17;;;;;;;6.93;6.23;;;20.60;56.90;;;;;;5473202;26;20469;-80
2024/04/23 07:51:43;;;;;;;6.63;6.00;;;21.20;56.70;;;;;;5473703;26;20498;-81
2024/04/23 07:54:11;;;;;;;7.60;5.87;;;21.50;55.50;;;;;;5471104;26;20542;-81
2024/04/23 07:56:40;;;;;;;7.00;6.50;;;21.60;54.20;;;;;;5428565;26;20520;-80
2024/04/23 07:59:10;;;;;;;9.63;6.87;;;21.20;53.10;;;;;;5387157;26;20480;-80
2024/04/23 08:01:38;;;;;;;5.73;5.17;;;21.20;53.50;;;;;;5392038;26;20469;-81
2024/04/23 08:04:07;;;;;;;14.57;5.90;;;21.00;53.60;;;;;;5426142;26;20480;-79
2024/04/23 08:06:35;;;;;;;7.60;6.27;;;20.90;51.10;;;;;;5392943;26;20477;-79
2024/04/23 08:09:01;;;;;;;10.63;5.90;;;21.00;52.50;;;;;;5392547;26;20508;-80
2024/04/23 08:11:30;;;;;;;5.83;5.20;;;21.40;53.10;;;;;;5391488;26;20456;-81
2024/04/23 08:13:56;;;;;;;6.60;6.00;;;21.40;51.70;;;;;;5380698;26;20457;-80
2024/04/23 08:16:27;;;;;;;6.27;5.67;;;21.40;51.70;;;;;;5428483;26;20559;-80
2024/04/23 08:18:53;;;;;;;5.43;4.93;;;21.30;52.10;;;;;;5393736;26;20488;-80
2024/04/23 08:21:22;;;;;;;6.10;5.60;;;21.40;51.50;;;;;;5388025;26;20514;-81
2024/04/23 08:23:49;;;;;;;6.20;5.27;;;21.80;52.20;;;;;;5389569;26;20485;-81
2024/04/23 08:26:17;;;;;;;7.83;6.60;;;21.80;51.90;;;;;;5387163;26;21022;-80
2024/04/23 08:28:44;;;;;;;6.43;5.80;;;21.40;52.10;;;;;;5387547;26;20472;-80
2024/04/23 08:31:15;;;;;;;6.00;5.50;;;21.70;53.10;;;;;;5388205;26;20469;-79
2024/04/23 08:33:51;;;;;;;8.73;6.07;;;22.10;51.70;;;;;;5389521;26;20469;-81
2024/04/23 08:36:20;;;;;;;6.00;5.60;;;21.90;51.20;;;;;;5388299;26;20472;-81
2024/04/23 08:38:46;;;;;;;6.23;5.73;;;21.80;51.00;;;;;;5385281;26;20476;-79
2024/04/23 08:41:18;;;;;;;5.53;5.10;;;21.80;51.00;;;;;;5387482;26;21178;-81
2024/04/23 08:43:49;;;;;;;6.57;6.07;;;21.00;51.70;;;;;;5388425;26;20484;-80
2024/04/23 08:46:18;;;;;;;7.40;6.70;;;20.20;51.20;;;;;;5387636;26;20498;-79
2024/04/23 08:48:48;;;;;;;6.77;6.17;;;17.90;53.00;;;;;;5384440;26;20528;-80
2024/04/23 08:51:19;;;;;;;6.27;5.67;;;17.40;56.70;;;;;;5388565;26;20473;-79
2024/04/23 08:53:48;;;;;;;5.10;4.60;;;17.60;56.20;;;;;;5389531;26;20473;-79
2024/04/23 08:56:22;;;;;;;5.67;5.27;;;17.70;55.60;;;;;;5383446;26;20558;-80
2024/04/23 08:58:49;;;;;;;6.20;5.73;;;17.10;55.10;;;;;;5384359;26;20530;-81
2024/04/23 09:01:23;;;;;;;5.93;5.43;;;16.20;56.80;;;;;;5388314;26;20458;-80
2024/04/23 09:03:54;;;;;;;8.98;5.90;;;15.60;57.90;;;;;;5385478;26;20456;-81
2024/04/23 09:06:23;;;;;;;6.28;5.85;;;14.70;58.50;;;;;;5386770;26;20234;-81
2024/04/23 09:08:52;;;;;;;6.40;5.75;;;14.00;60.10;;;;;;5388945;26;20239;-79
2024/04/23 09:11:21;;;;;;;5.90;5.45;;;13.70;61.40;;;;;;5409862;26;20269;-79
2024/04/23 09:13:47;;;;;;;6.18;5.65;;;13.30;62.00;;;;;;5387459;26;20268;-80
2024/04/23 09:16:16;;;;;;;6.30;5.90;;;13.10;63.70;;;;;;5387654;26;20319;-80
2024/04/23 09:18:42;;;;;;;6.50;6.00;;;13.10;64.00;;;;;;5386863;26;20284;-81
2024/04/23 09:21:14;;;;;;;7.57;6.70;;;13.00;63.90;;;;;;5389360;26;20261;-79
2024/04/23 09:23:40;;;;;;;9.93;6.10;;;13.10;64.70;;;;;;5390807;26;20513;-79
2024/04/23 09:26:09;;;;;;;5.63;5.17;;;14.40;65.00;;;;;;5391783;26;20240;-79
2024/04/23 09:28:36;;;;;;;6.73;6.07;;;15.80;61.40;;;;;;5391089;26;20488;-79
2024/04/23 09:31:05;;;;;;;6.73;6.20;;;15.90;58.40;;;;;;5391121;26;20476;-80
2024/04/23 09:33:32;;;;;;;6.73;6.10;;;15.70;59.40;;;;;;5391094;26;20464;-79
2024/04/23 09:36:06;;;;;;;5.28;4.90;;;15.30;59.40;;;;;;5389244;26;20462;-80
2024/04/23 09:38:39;;;;;;;6.82;6.32;;;14.90;60.00;;;;;;5398957;26;20230;-79
2024/04/23 09:41:08;;;;;;;7.15;6.45;;;14.40;60.40;;;;;;5385752;26;20226;-81
2024/04/23 09:43:36;;;;;;;7.95;7.25;;;14.00;61.20;;;;;;5394604;26;20235;-80
2024/04/23 09:46:06;;;;;;;6.65;6.05;;;13.30;61.30;;;;;;5404580;26;20243;-80
2024/04/23 09:48:33;;;;;;;7.47;6.70;;;12.80;63.00;;;;;;5399084;26;20267;-79
2024/04/23 09:51:04;;;;;;;7.15;6.43;;;12.90;65.10;;;;;;5387488;26;20238;-80
2024/04/23 09:53:30;;;;;;;12.05;6.57;;;12.80;65.60;;;;;;5390837;26;20272;-78
2024/04/23 09:56:07;;;;;;;9.25;7.60;;;12.80;65.50;;;;;;5376739;26;20239;-78
2024/04/23 09:58:34;;;;;;;7.28;6.78;;;12.80;66.40;;;;;;5392239;26;20271;-79
2024/04/23 10:01:03;;;;;;;8.13;7.45;;;12.40;64.40;;;;;;5392487;26;20281;-78
2024/04/23 10:03:38;;;;;;;6.63;6.03;;;12.00;65.50;;;;;;5400017;26;20272;-79
2024/04/23 10:06:09;;;;;;;6.95;6.35;;;11.80;66.90;;;;;;5377692;26;20576;-79
2024/04/23 10:08:44;;;;;;;7.40;5.93;;;12.70;69.40;;;;;;5389121;26;20235;-78
2024/04/23 10:11:20;;;;;;;8.30;5.97;;;13.90;66.40;;;;;;5400882;26;20234;-80
2024/04/23 10:13:51;;;;;;;8.25;5.50;;;15.00;64.10;;;;;;5402494;26;20309;-82
2024/04/23 10:16:25;;;;;;;11.00;7.20;;;14.80;61.90;;;;;;5386289;26;20250;-80
2024/04/23 10:19:00;;;;;;;6.32;5.80;;;14.50;61.80;;;;;;5385096;26;20235;-80
2024/04/23 10:21:32;;;;;;;7.32;6.75;;;14.10;62.20;;;;;;5386948;26;20288;-80
2024/04/23 10:24:03;;;;;;;7.30;6.70;;;13.70;62.60;;;;;;5375610;26;20235;-80
2024/04/23 10:26:34;;;;;;;7.68;7.00;;;13.40;63.70;;;;;;5389223;26;20271;-79
2024/04/23 10:29:01;;;;;;;7.10;6.32;;;13.10;64.00;;;;;;5375003;26;20277;-81
2024/04/23 10:31:31;;;;;;;6.85;6.20;;;12.90;64.60;;;;;;5388289;26;20238;-79
2024/04/23 10:33:58;;;;;;;6.65;6.03;;;12.60;64.90;;;;;;5392621;26;20232;-79
2024/04/23 10:36:28;;;;;;;6.80;6.30;;;12.10;64.90;;;;;;5394422;26;20273;-78
2024/04/23 10:38:58;;;;;;;7.40;6.72;;;11.80;65.20;;;;;;5383241;26;20282;-79
2024/04/23 10:41:28;;;;;;;6.82;6.15;;;11.90;66.30;;;;;;5387235;26;20623;-78
2024/04/23 10:43:58;;;;;;;7.35;6.85;;;12.10;67.40;;;;;;5402209;26;20279;-80
2024/04/23 10:46:27;;;;;;;7.15;6.45;;;12.40;66.40;;;;;;5385093;26;20241;-79
2024/04/23 10:48:54;;;;;;;6.45;6.05;;;12.30;65.60;;;;;;5398897;26;20248;-79
2024/04/23 10:51:25;;;;;;;7.07;6.57;;;12.40;66.40;;;;;;5398535;26;20234;-81
2024/04/23 10:53:51;;;;;;;7.93;7.20;;;12.90;66.10;;;;;;5392016;26;20229;-80
2024/04/23 10:56:30;;;;;;;6.72;6.13;;;13.20;64.30;;;;;;5374684;26;20411;-79
2024/04/23 10:59:11;;;;;;;7.35;6.05;;;13.30;62.90;;;;;;5377463;26;20276;-80
2024/04/23 11:01:49;;;;;;;6.60;6.10;;;13.60;63.40;;;;;;5378176;26;20246;-79
2024/04/23 11:04:15;;;;;;;6.68;6.15;;;13.60;63.50;;;;;;5395338;26;20237;-80
2024/04/23 11:06:44;;;;;;;7.80;7.20;;;13.60;62.90;;;;;;5387360;26;20281;-80
2024/04/23 11:09:15;;;;;;;6.07;5.65;;;13.50;62.20;;;;;;5384016;26;20281;-78
2024/04/23 11:11:51;;;;;;;6.95;6.45;;;13.20;61.60;;;;;;5384704;26;20289;-81
2024/04/23 11:14:48;;;;;;;7.13;6.57;;;13.40;62.10;;;;;;5384376;26;20238;-80
2024/04/23 11:17:16;;;;;;;6.78;6.22;;;13.30;61.60;;;;;;5408743;26;20286;-80
2024/04/23 11:19:46;;;;;;;7.85;7.25;;;13.40;62.00;;;;;;5385456;26;20270;-80
2024/04/23 11:22:15;;;;;;;7.28;6.68;;;13.60;62.50;;;;;;5397063;26;20264;-81
2024/04/23 11:24:53;;;;;;;6.68;6.10;;;13.50;62.80;;;;;;5386381;26;20242;-79
2024/04/23 11:27:22;;;;;;;7.82;6.45;;;13.40;61.60;;;;;;5397576;26;20260;-80
2024/04/23 11:29:52;;;;;;;5.43;5.03;;;13.30;61.20;;;;;;5422009;26;20232;-78
2024/04/23 11:32:22;;;;;;;6.55;6.00;;;13.20;61.40;;;;;;5385982;26;20253;-78
2024/04/23 11:34:48;;;;;;;7.32;6.70;;;13.30;61.60;;;;;;5390836;26;20238;-79
2024/04/23 11:37:27;;;;;;;6.30;5.70;;;13.20;61.30;;;;;;5398785;26;20245;-80
2024/04/23 11:39:56;;;;;;;7.13;6.55;;;13.30;61.40;;;;;;5391845;26;20381;-81
2024/04/23 11:42:26;;;;;;;8.55;7.18;;;13.30;62.10;;;;;;5395283;26;20276;-80
2024/04/23 11:44:56;;;;;;;7.32;6.72;;;13.20;61.80;;;;;;5387965;26;20277;-79
2024/04/23 11:47:26;;;;;;;6.70;6.03;;;13.00;62.30;;;;;;5404026;26;20233;-80
2024/04/23 11:49:58;;;;;;;7.70;7.00;;;12.60;62.80;;;;;;5391825;26;20739;-79
2024/04/23 11:52:25;;;;;;;7.75;7.15;;;12.30;62.90;;;;;;5398505;26;20264;-79
2024/04/23 11:54:59;;;;;;;8.07;7.47;;;12.10;63.50;;;;;;5392423;26;20229;-79
2024/04/23 11:57:25;;;;;;;6.65;6.15;;;12.20;63.20;;;;;;5405070;26;20274;-79
2024/04/23 11:59:56;;;;;;;6.60;6.07;;;12.10;63.00;;;;;;5394485;26;20241;-79
2024/04/23 12:02:23;;;;;;;7.03;6.40;;;12.30;64.00;;;;;;5415893;26;20233;-78
2024/04/23 12:04:53;;;;;;;7.50;6.90;;;12.20;63.20;;;;;;5411628;26;20370;-79
2024/04/23 12:07:19;;;;;;;8.18;7.45;;;12.30;63.10;;;;;;5387622;26;20226;-80
2024/04/23 12:09:50;;;;;;;7.53;7.03;;;12.30;62.60;;;;;;5389856;26;20242;-81
2024/04/23 12:12:19;;;;;;;7.35;6.85;;;12.40;63.10;;;;;;5397582;26;20827;-80
2024/04/23 12:14:48;;;;;;;9.32;7.68;;;12.60;63.00;;;;;;5403025;26;20233;-80
2024/04/23 12:17:17;;;;;;;6.75;6.25;;;12.80;62.50;;;;;;5396003;26;20276;-80
2024/04/23 12:19:46;;;;;;;7.80;7.22;;;13.10;62.20;;;;;;5384510;26;20243;-81
2024/04/23 12:22:13;;;;;;;7.40;6.80;;;13.30;62.00;;;;;;5386346;26;20605;-79
2024/04/23 12:24:42;;;;;;;10.32;7.75;;;13.50;61.20;;;;;;5385951;26;20282;-78
2024/04/23 12:27:09;;;;;;;7.57;7.07;;;13.70;61.30;;;;;;5385826;26;20218;-80
2024/04/23 12:29:38;;;;;;;7.35;6.65;;;13.70;60.40;;;;;;5368769;26;20258;-79
2024/04/23 12:32:12;;;;;;;7.10;6.60;;;13.50;60.70;;;;;;5366142;26;20234;-81
2024/04/23 12:34:43;;;;;;;7.72;7.03;;;13.10;60.50;;;;;;5388110;26;20246;-79
2024/04/23 12:37:09;;;;;;;7.10;6.60;;;12.80;60.90;;;;;;5372197;26;20245;-80
2024/04/23 12:39:40;;;;;;;7.82;7.13;;;12.80;60.90;;;;;;5411979;26;20300;-80
2024/04/23 12:42:12;;;;;;;8.18;7.05;;;12.80;61.60;;;;;;5379706;26;20237;-80
2024/04/23 12:44:41;;;;;;;9.07;8.20;;;12.60;62.30;;;;;;5380675;26;20285;-80
2024/04/23 12:47:09;;;;;;;8.25;7.65;;;12.80;62.50;;;;;;5376185;26;20284;-80
2024/04/23 12:49:38;;;;;;;8.73;8.13;;;12.90;62.00;;;;;;5369163;26;20243;-80
2024/04/23 12:52:07;;;;;;;7.88;7.18;;;13.10;61.10;;;;;;5364895;26;20241;-80
2024/04/23 12:54:36;;;;;;;7.78;7.28;;;13.00;61.60;;;;;;5373956;26;20254;-80
2024/04/23 12:57:06;;;;;;;8.30;7.60;;;12.70;61.60;;;;;;5372343;26;20281;-81
2024/04/23 12:59:37;;;;;;;8.73;8.02;;;12.80;61.90;;;;;;5364448;26;20797;-80
2024/04/23 13:02:03;;;;;;;8.77;7.97;;;12.80;61.80;;;;;;5376092;26;20276;-82
2024/04/23 13:04:32;;;;;;;8.18;7.22;;;12.80;62.40;;;;;;5385333;26;20324;-81
2024/04/23 13:07:00;;;;;;;8.93;8.13;;;13.00;63.10;;;;;;5379366;26;20227;-80